CYGQ

Geraldton Greenstone Regional Airport

Geraldton, Ontario, Canada
METAR CYGQ 191500Z 18008KT 12SM OVC006 M03/M04 A2931 RMK ST8 PRESFR SLP950
Observed Flight Rules
Jan-19 @ 15:00 UTC (22 minutes ago) Instrument Flight Rules
Wind Visibility Clouds
180° at 8 knots 12 miles
  • Overcast at 600' AGL
Temperatures Readings
Current -3°C / 27°F
Dewpoint -4°C / 25°F
Humidity 93%
Altimeter 29.31" Hg
Pressure 995 hPa
Elevation 351
METAR CYGQ 191500Z 18008KT 12SM OVC006 M03/M04 A2931 RMK ST8 PRESFR SLP950
Observed Flight Rules
Jan-19 @ 15:00 UTC
(22 minutes ago)
IFR
Wind Visibility
180° at 8 knots 12 miles
Clouds
  • Overcast at 600' AGL
Temperature Dewpoint
-3°C / 27°F -4°C / 25°F
Humidity Altimeter Pressure
93% 29.31" Hg 995 hPa